sensor_id;sensor_type;location;lat;lon;timestamp;temperature;humidity
7666;DHT22;3875;46.562;4.898;2022-12-20T00:01:12;12.70;91.00
7666;DHT22;3875;46.562;4.898;2022-12-20T00:03:38;12.70;91.00
7666;DHT22;3875;46.562;4.898;2022-12-20T00:06:04;12.80;91.00
7666;DHT22;3875;46.562;4.898;2022-12-20T00:08:30;12.80;90.90
7666;DHT22;3875;46.562;4.898;2022-12-20T00:10:59;12.80;90.90
7666;DHT22;3875;46.562;4.898;2022-12-20T00:13:25;12.80;90.70
7666;DHT22;3875;46.562;4.898;2022-12-20T00:16:12;12.90;90.60
7666;DHT22;3875;46.562;4.898;2022-12-20T00:18:39;12.90;90.40
7666;DHT22;3875;46.562;4.898;2022-12-20T00:21:07;12.90;90.30
7666;DHT22;3875;46.562;4.898;2022-12-20T00:23:34;12.90;90.20
7666;DHT22;3875;46.562;4.898;2022-12-20T00:26:12;13.00;90.10
7666;DHT22;3875;46.562;4.898;2022-12-20T00:28:39;13.00;90.00
7666;DHT22;3875;46.562;4.898;2022-12-20T00:31:07;12.90;89.90
7666;DHT22;3875;46.562;4.898;2022-12-20T00:33:34;12.90;89.80
7666;DHT22;3875;46.562;4.898;2022-12-20T00:36:00;12.90;89.90
7666;DHT22;3875;46.562;4.898;2022-12-20T00:38:25;13.00;89.70
7666;DHT22;3875;46.562;4.898;2022-12-20T00:41:02;13.00;89.60
7666;DHT22;3875;46.562;4.898;2022-12-20T00:43:29;13.00;89.50
7666;DHT22;3875;46.562;4.898;2022-12-20T00:45:55;13.00;89.50
7666;DHT22;3875;46.562;4.898;2022-12-20T00:48:22;13.00;89.40
7666;DHT22;3875;46.562;4.898;2022-12-20T00:50:48;13.00;89.30
7666;DHT22;3875;46.562;4.898;2022-12-20T00:53:14;13.10;89.20
7666;DHT22;3875;46.562;4.898;2022-12-20T00:55:41;13.10;89.10
7666;DHT22;3875;46.562;4.898;2022-12-20T00:58:08;13.10;89.10
7666;DHT22;3875;46.562;4.898;2022-12-20T01:00:33;13.10;89.10
7666;DHT22;3875;46.562;4.898;2022-12-20T01:02:59;13.10;89.00
7666;DHT22;3875;46.562;4.898;2022-12-20T01:05:25;13.10;88.90
7666;DHT22;3875;46.562;4.898;2022-12-20T01:07:50;13.20;88.90
7666;DHT22;3875;46.562;4.898;2022-12-20T01:10:16;13.20;88.90
7666;DHT22;3875;46.562;4.898;2022-12-20T01:12:42;13.20;88.80
7666;DHT22;3875;46.562;4.898;2022-12-20T01:15:09;13.20;88.80
7666;DHT22;3875;46.562;4.898;2022-12-20T01:17:35;13.20;88.70
7666;DHT22;3875;46.562;4.898;2022-12-20T01:20:01;13.20;88.70
7666;DHT22;3875;46.562;4.898;2022-12-20T01:22:26;13.20;88.70
7666;DHT22;3875;46.562;4.898;2022-12-20T01:24:52;13.20;88.60
7666;DHT22;3875;46.562;4.898;2022-12-20T01:27:18;13.20;88.70
7666;DHT22;3875;46.562;4.898;2022-12-20T01:29:44;13.20;88.60
7666;DHT22;3875;46.562;4.898;2022-12-20T01:32:09;13.20;88.60
7666;DHT22;3875;46.562;4.898;2022-12-20T01:34:35;13.30;88.60
7666;DHT22;3875;46.562;4.898;2022-12-20T01:37:01;13.30;88.50
7666;DHT22;3875;46.562;4.898;2022-12-20T01:39:26;13.30;88.50
7666;DHT22;3875;46.562;4.898;2022-12-20T01:41:52;13.30;88.50
7666;DHT22;3875;46.562;4.898;2022-12-20T01:46:45;13.30;88.50
7666;DHT22;3875;46.562;4.898;2022-12-20T01:54:23;13.40;88.30
7666;DHT22;3875;46.562;4.898;2022-12-20T01:56:55;13.40;88.20
7666;DHT22;3875;46.562;4.898;2022-12-20T01:59:21;13.40;88.30
7666;DHT22;3875;46.562;4.898;2022-12-20T02:01:47;13.40;88.20
7666;DHT22;3875;46.562;4.898;2022-12-20T02:04:13;13.40;88.20
7666;DHT22;3875;46.562;4.898;2022-12-20T02:06:39;13.30;88.30
7666;DHT22;3875;46.562;4.898;2022-12-20T02:09:06;13.30;88.40
7666;DHT22;3875;46.562;4.898;2022-12-20T02:14:58;13.30;88.30
7666;DHT22;3875;46.562;4.898;2022-12-20T02:23:15;13.20;88.40
7666;DHT22;3875;46.562;4.898;2022-12-20T02:31:11;13.10;88.30
7666;DHT22;3875;46.562;4.898;2022-12-20T02:33:41;13.10;88.40
7666;DHT22;3875;46.562;4.898;2022-12-20T02:36:08;13.10;88.30
7666;DHT22;3875;46.562;4.898;2022-12-20T02:38:37;13.20;88.00
7666;DHT22;3875;46.562;4.898;2022-12-20T02:41:07;13.20;88.00
7666;DHT22;3875;46.562;4.898;2022-12-20T02:43:37;13.20;87.80
7666;DHT22;3875;46.562;4.898;2022-12-20T02:46:23;13.20;87.80
7666;DHT22;3875;46.562;4.898;2022-12-20T02:48:50;13.20;87.70
7666;DHT22;3875;46.562;4.898;2022-12-20T02:51:17;13.10;87.70
7666;DHT22;3875;46.562;4.898;2022-12-20T02:53:46;13.10;87.80
7666;DHT22;3875;46.562;4.898;2022-12-20T02:58:54;13.10;88.00
7666;DHT22;3875;46.562;4.898;2022-12-20T03:01:30;13.10;88.00
7666;DHT22;3875;46.562;4.898;2022-12-20T03:03:57;13.10;88.10
7666;DHT22;3875;46.562;4.898;2022-12-20T03:06:24;13.10;88.10
7666;DHT22;3875;46.562;4.898;2022-12-20T03:08:50;13.10;88.10
7666;DHT22;3875;46.562;4.898;2022-12-20T03:11:15;13.00;88.30
7666;DHT22;3875;46.562;4.898;2022-12-20T03:13:41;13.00;88.40
7666;DHT22;3875;46.562;4.898;2022-12-20T03:16:07;13.00;88.40
7666;DHT22;3875;46.562;4.898;2022-12-20T03:18:33;13.00;88.50
7666;DHT22;3875;46.562;4.898;2022-12-20T03:20:59;13.00;88.60
7666;DHT22;3875;46.562;4.898;2022-12-20T03:23:25;13.00;88.60
7666;DHT22;3875;46.562;4.898;2022-12-20T03:25:51;13.00;88.70
7666;DHT22;3875;46.562;4.898;2022-12-20T03:28:17;13.00;88.60
7666;DHT22;3875;46.562;4.898;2022-12-20T03:30:42;13.00;88.60
7666;DHT22;3875;46.562;4.898;2022-12-20T03:33:08;13.00;88.60
7666;DHT22;3875;46.562;4.898;2022-12-20T03:35:34;13.00;88.60
7666;DHT22;3875;46.562;4.898;2022-12-20T03:38:00;13.00;88.60
7666;DHT22;3875;46.562;4.898;2022-12-20T03:40:26;13.10;88.50
7666;DHT22;3875;46.562;4.898;2022-12-20T03:42:51;13.10;88.40
7666;DHT22;3875;46.562;4.898;2022-12-20T03:45:17;13.10;88.40
7666;DHT22;3875;46.562;4.898;2022-12-20T03:47:43;13.10;88.40
7666;DHT22;3875;46.562;4.898;2022-12-20T03:50:09;13.10;88.40
7666;DHT22;3875;46.562;4.898;2022-12-20T03:52:35;13.10;88.40
7666;DHT22;3875;46.562;4.898;2022-12-20T03:55:00;13.10;88.50
7666;DHT22;3875;46.562;4.898;2022-12-20T03:57:26;13.10;88.40
7666;DHT22;3875;46.562;4.898;2022-12-20T03:59:52;13.10;88.40
7666;DHT22;3875;46.562;4.898;2022-12-20T04:02:18;13.10;88.40
7666;DHT22;3875;46.562;4.898;2022-12-20T04:04:46;13.10;88.40
7666;DHT22;3875;46.562;4.898;2022-12-20T04:07:12;13.10;88.40
7666;DHT22;3875;46.562;4.898;2022-12-20T04:09:38;13.10;88.30
7666;DHT22;3875;46.562;4.898;2022-12-20T04:12:04;13.10;88.30
7666;DHT22;3875;46.562;4.898;2022-12-20T04:14:30;13.10;88.30
7666;DHT22;3875;46.562;4.898;2022-12-20T04:16:56;13.10;88.30
7666;DHT22;3875;46.562;4.898;2022-12-20T04:19:21;13.10;88.30
7666;DHT22;3875;46.562;4.898;2022-12-20T04:21:47;13.10;88.20
7666;DHT22;3875;46.562;4.898;2022-12-20T04:24:13;13.10;88.20
7666;DHT22;3875;46.562;4.898;2022-12-20T04:26:38;13.10;88.20
7666;DHT22;3875;46.562;4.898;2022-12-20T04:29:04;13.20;88.20
7666;DHT22;3875;46.562;4.898;2022-12-20T04:31:30;13.20;88.00
7666;DHT22;3875;46.562;4.898;2022-12-20T04:33:56;13.20;88.00
7666;DHT22;3875;46.562;4.898;2022-12-20T04:36:21;13.20;88.00
7666;DHT22;3875;46.562;4.898;2022-12-20T04:38:47;13.20;87.80
7666;DHT22;3875;46.562;4.898;2022-12-20T04:41:13;13.20;87.70
7666;DHT22;3875;46.562;4.898;2022-12-20T04:43:55;13.20;87.70
7666;DHT22;3875;46.562;4.898;2022-12-20T04:46:22;13.20;87.70
7666;DHT22;3875;46.562;4.898;2022-12-20T04:48:48;13.20;87.80
7666;DHT22;3875;46.562;4.898;2022-12-20T04:51:15;13.20;87.70
7666;DHT22;3875;46.562;4.898;2022-12-20T04:53:41;13.20;87.70
7666;DHT22;3875;46.562;4.898;2022-12-20T04:56:32;13.20;87.70
7666;DHT22;3875;46.562;4.898;2022-12-20T04:58:58;13.20;87.70
7666;DHT22;3875;46.562;4.898;2022-12-20T05:01:24;13.20;87.70
7666;DHT22;3875;46.562;4.898;2022-12-20T05:03:50;13.20;87.70
7666;DHT22;3875;46.562;4.898;2022-12-20T05:06:17;13.20;87.70
7666;DHT22;3875;46.562;4.898;2022-12-20T05:08:42;13.20;87.70
7666;DHT22;3875;46.562;4.898;2022-12-20T05:11:10;13.20;87.60
7666;DHT22;3875;46.562;4.898;2022-12-20T05:13:36;13.20;87.60
7666;DHT22;3875;46.562;4.898;2022-12-20T05:16:02;13.30;87.60
7666;DHT22;3875;46.562;4.898;2022-12-20T05:18:28;13.30;87.40
7666;DHT22;3875;46.562;4.898;2022-12-20T05:20:56;13.30;87.40
7666;DHT22;3875;46.562;4.898;2022-12-20T05:23:45;13.30;87.50
7666;DHT22;3875;46.562;4.898;2022-12-20T05:26:32;13.30;87.50
7666;DHT22;3875;46.562;4.898;2022-12-20T05:28:58;13.30;87.50
7666;DHT22;3875;46.562;4.898;2022-12-20T05:31:24;13.30;87.60
7666;DHT22;3875;46.562;4.898;2022-12-20T05:33:50;13.30;87.80
7666;DHT22;3875;46.562;4.898;2022-12-20T05:36:15;13.30;88.00
7666;DHT22;3875;46.562;4.898;2022-12-20T05:38:41;13.30;88.40
7666;DHT22;3875;46.562;4.898;2022-12-20T05:41:07;13.30;88.60
7666;DHT22;3875;46.562;4.898;2022-12-20T05:43:32;13.30;88.70
7666;DHT22;3875;46.562;4.898;2022-12-20T05:45:58;13.30;88.70
7666;DHT22;3875;46.562;4.898;2022-12-20T05:48:24;13.20;88.60
7666;DHT22;3875;46.562;4.898;2022-12-20T05:50:50;13.30;88.60
7666;DHT22;3875;46.562;4.898;2022-12-20T05:53:16;13.30;88.50
7666;DHT22;3875;46.562;4.898;2022-12-20T05:55:50;13.30;88.50
7666;DHT22;3875;46.562;4.898;2022-12-20T05:58:16;13.30;88.20
7666;DHT22;3875;46.562;4.898;2022-12-20T06:00:43;13.30;88.00
7666;DHT22;3875;46.562;4.898;2022-12-20T06:03:10;13.30;87.90
7666;DHT22;3875;46.562;4.898;2022-12-20T06:05:37;13.40;87.90
7666;DHT22;3875;46.562;4.898;2022-12-20T06:08:05;13.40;87.80
7666;DHT22;3875;46.562;4.898;2022-12-20T06:10:31;13.40;87.70
7666;DHT22;3875;46.562;4.898;2022-12-20T06:12:57;13.40;87.70
7666;DHT22;3875;46.562;4.898;2022-12-20T06:15:22;13.30;87.70
7666;DHT22;3875;46.562;4.898;2022-12-20T06:17:48;13.40;87.80
7666;DHT22;3875;46.562;4.898;2022-12-20T06:20:14;13.30;87.70
7666;DHT22;3875;46.562;4.898;2022-12-20T06:22:39;13.40;87.70
7666;DHT22;3875;46.562;4.898;2022-12-20T06:25:06;13.40;87.70
7666;DHT22;3875;46.562;4.898;2022-12-20T06:27:34;13.40;87.80
7666;DHT22;3875;46.562;4.898;2022-12-20T06:30:00;13.40;87.80
7666;DHT22;3875;46.562;4.898;2022-12-20T06:32:25;13.40;87.90
7666;DHT22;3875;46.562;4.898;2022-12-20T06:34:51;13.40;87.90
7666;DHT22;3875;46.562;4.898;2022-12-20T06:37:17;13.40;87.90
7666;DHT22;3875;46.562;4.898;2022-12-20T06:39:42;13.40;87.90
7666;DHT22;3875;46.562;4.898;2022-12-20T06:42:08;13.40;88.00
7666;DHT22;3875;46.562;4.898;2022-12-20T06:44:34;13.40;88.00
7666;DHT22;3875;46.562;4.898;2022-12-20T06:47:00;13.40;88.00
7666;DHT22;3875;46.562;4.898;2022-12-20T06:49:26;13.40;88.10
7666;DHT22;3875;46.562;4.898;2022-12-20T06:51:52;13.40;88.20
7666;DHT22;3875;46.562;4.898;2022-12-20T06:54:17;13.40;88.20
7666;DHT22;3875;46.562;4.898;2022-12-20T06:56:43;13.40;88.20
7666;DHT22;3875;46.562;4.898;2022-12-20T06:59:09;13.40;88.20
7666;DHT22;3875;46.562;4.898;2022-12-20T07:01:34;13.50;88.20
7666;DHT22;3875;46.562;4.898;2022-12-20T07:04:00;13.50;88.20
7666;DHT22;3875;46.562;4.898;2022-12-20T07:06:26;13.50;88.30
7666;DHT22;3875;46.562;4.898;2022-12-20T07:08:53;13.40;88.30
7666;DHT22;3875;46.562;4.898;2022-12-20T07:11:19;13.50;88.30
7666;DHT22;3875;46.562;4.898;2022-12-20T07:13:45;13.50;88.30
7666;DHT22;3875;46.562;4.898;2022-12-20T07:16:11;13.50;88.30
7666;DHT22;3875;46.562;4.898;2022-12-20T07:18:36;13.50;88.30
7666;DHT22;3875;46.562;4.898;2022-12-20T07:21:04;13.50;88.30
7666;DHT22;3875;46.562;4.898;2022-12-20T07:23:30;13.50;88.40
7666;DHT22;3875;46.562;4.898;2022-12-20T07:25:57;13.50;88.40
7666;DHT22;3875;46.562;4.898;2022-12-20T07:28:24;13.50;88.40
7666;DHT22;3875;46.562;4.898;2022-12-20T07:30:50;13.50;88.50
7666;DHT22;3875;46.562;4.898;2022-12-20T07:33:16;13.50;88.60
7666;DHT22;3875;46.562;4.898;2022-12-20T07:35:42;13.50;88.50
7666;DHT22;3875;46.562;4.898;2022-12-20T07:38:10;13.50;88.60
7666;DHT22;3875;46.562;4.898;2022-12-20T07:40:39;13.50;88.60
7666;DHT22;3875;46.562;4.898;2022-12-20T07:43:05;13.50;88.50
7666;DHT22;3875;46.562;4.898;2022-12-20T07:45:31;13.50;88.60
7666;DHT22;3875;46.562;4.898;2022-12-20T07:47:56;13.50;88.50
7666;DHT22;3875;46.562;4.898;2022-12-20T07:50:22;13.50;88.60
7666;DHT22;3875;46.562;4.898;2022-12-20T07:52:49;13.50;88.60
7666;DHT22;3875;46.562;4.898;2022-12-20T07:55:16;13.50;88.50
7666;DHT22;3875;46.562;4.898;2022-12-20T07:57:46;13.60;88.40
7666;DHT22;3875;46.562;4.898;2022-12-20T08:00:14;13.60;88.40
7666;DHT22;3875;46.562;4.898;2022-12-20T08:03:29;13.60;88.40
7666;DHT22;3875;46.562;4.898;2022-12-20T08:05:37;13.60;88.40
7666;DHT22;3875;46.562;4.898;2022-12-20T08:08:06;13.60;88.40
7666;DHT22;3875;46.562;4.898;2022-12-20T08:10:33;13.60;88.30
7666;DHT22;3875;46.562;4.898;2022-12-20T08:12:59;13.60;88.30
7666;DHT22;3875;46.562;4.898;2022-12-20T08:15:25;13.70;88.20
7666;DHT22;3875;46.562;4.898;2022-12-20T08:17:53;13.70;88.10
7666;DHT22;3875;46.562;4.898;2022-12-20T08:20:18;13.70;88.20
7666;DHT22;3875;46.562;4.898;2022-12-20T08:22:44;13.70;88.00
7666;DHT22;3875;46.562;4.898;2022-12-20T08:25:10;13.80;87.80
7666;DHT22;3875;46.562;4.898;2022-12-20T08:27:36;13.80;87.80
7666;DHT22;3875;46.562;4.898;2022-12-20T08:30:03;13.90;87.60
7666;DHT22;3875;46.562;4.898;2022-12-20T08:32:29;13.90;87.60
7666;DHT22;3875;46.562;4.898;2022-12-20T08:34:55;13.90;87.40
7666;DHT22;3875;46.562;4.898;2022-12-20T08:37:21;14.00;87.30
7666;DHT22;3875;46.562;4.898;2022-12-20T08:39:47;14.00;87.10
7666;DHT22;3875;46.562;4.898;2022-12-20T08:42:12;14.10;87.00
7666;DHT22;3875;46.562;4.898;2022-12-20T08:44:38;14.20;86.80
7666;DHT22;3875;46.562;4.898;2022-12-20T08:47:04;14.30;86.30
7666;DHT22;3875;46.562;4.898;2022-12-20T08:49:29;14.20;86.20
7666;DHT22;3875;46.562;4.898;2022-12-20T08:51:55;14.20;86.30
7666;DHT22;3875;46.562;4.898;2022-12-20T08:54:21;14.20;86.40
7666;DHT22;3875;46.562;4.898;2022-12-20T08:56:47;14.20;86.30
7666;DHT22;3875;46.562;4.898;2022-12-20T08:59:13;14.20;86.20
7666;DHT22;3875;46.562;4.898;2022-12-20T09:01:38;14.20;86.00
7666;DHT22;3875;46.562;4.898;2022-12-20T09:04:04;14.20;86.00
7666;DHT22;3875;46.562;4.898;2022-12-20T09:06:30;14.20;85.90
7666;DHT22;3875;46.562;4.898;2022-12-20T09:08:56;14.20;85.80
7666;DHT22;3875;46.562;4.898;2022-12-20T09:11:25;14.20;85.70
7666;DHT22;3875;46.562;4.898;2022-12-20T09:13:56;14.30;85.70
7666;DHT22;3875;46.562;4.898;2022-12-20T09:16:24;14.30;85.50
7666;DHT22;3875;46.562;4.898;2022-12-20T09:18:52;14.20;85.50
7666;DHT22;3875;46.562;4.898;2022-12-20T09:21:18;14.30;85.40
7666;DHT22;3875;46.562;4.898;2022-12-20T09:23:44;14.30;85.50
7666;DHT22;3875;46.562;4.898;2022-12-20T09:26:13;14.30;85.40
7666;DHT22;3875;46.562;4.898;2022-12-20T09:28:39;14.20;85.30
7666;DHT22;3875;46.562;4.898;2022-12-20T09:31:07;14.20;85.40
7666;DHT22;3875;46.562;4.898;2022-12-20T09:33:34;14.20;85.20
7666;DHT22;3875;46.562;4.898;2022-12-20T09:36:00;14.20;85.30
7666;DHT22;3875;46.562;4.898;2022-12-20T09:38:27;14.20;85.20
7666;DHT22;3875;46.562;4.898;2022-12-20T09:40:59;14.30;85.20
7666;DHT22;3875;46.562;4.898;2022-12-20T09:43:26;14.30;85.20
7666;DHT22;3875;46.562;4.898;2022-12-20T09:46:00;14.30;85.00
7666;DHT22;3875;46.562;4.898;2022-12-20T09:48:36;14.40;85.10
7666;DHT22;3875;46.562;4.898;2022-12-20T09:56:17;14.50;85.00
7666;DHT22;3875;46.562;4.898;2022-12-20T10:01:22;14.50;84.90
7666;DHT22;3875;46.562;4.898;2022-12-20T10:03:50;14.60;84.90
7666;DHT22;3875;46.562;4.898;2022-12-20T10:08:59;14.70;84.40
7666;DHT22;3875;46.562;4.898;2022-12-20T10:16:49;14.80;84.20
7666;DHT22;3875;46.562;4.898;2022-12-20T10:22:25;14.80;83.90
7666;DHT22;3875;46.562;4.898;2022-12-20T10:25:05;14.70;84.00
7666;DHT22;3875;46.562;4.898;2022-12-20T10:27:40;14.70;84.30
7666;DHT22;3875;46.562;4.898;2022-12-20T10:30:19;14.70;84.20
7666;DHT22;3875;46.562;4.898;2022-12-20T10:32:48;14.80;83.90
7666;DHT22;3875;46.562;4.898;2022-12-20T10:35:23;14.80;84.00
7666;DHT22;3875;46.562;4.898;2022-12-20T10:38:04;14.90;84.00
7666;DHT22;3875;46.562;4.898;2022-12-20T10:40:36;14.90;83.70
7666;DHT22;3875;46.562;4.898;2022-12-20T10:43:04;14.90;83.80
7666;DHT22;3875;46.562;4.898;2022-12-20T10:45:38;15.00;83.90
7666;DHT22;3875;46.562;4.898;2022-12-20T10:53:36;15.10;83.40
7666;DHT22;3875;46.562;4.898;2022-12-20T10:58:57;15.20;83.20
7666;DHT22;3875;46.562;4.898;2022-12-20T11:01:29;15.40;82.90
7666;DHT22;3875;46.562;4.898;2022-12-20T11:03:57;15.50;82.40
7666;DHT22;3875;46.562;4.898;2022-12-20T11:06:26;15.60;81.90
7666;DHT22;3875;46.562;4.898;2022-12-20T11:08:53;15.70;81.60
7666;DHT22;3875;46.562;4.898;2022-12-20T11:11:36;15.60;81.40
7666;DHT22;3875;46.562;4.898;2022-12-20T11:14:13;15.50;81.90
7666;DHT22;3875;46.562;4.898;2022-12-20T11:16:39;15.40;82.00
7666;DHT22;3875;46.562;4.898;2022-12-20T11:21:56;15.50;82.20
7666;DHT22;3875;46.562;4.898;2022-12-20T11:24:32;15.70;81.80
7666;DHT22;3875;46.562;4.898;2022-12-20T11:38:40;16.10;80.30
7666;DHT22;3875;46.562;4.898;2022-12-20T11:41:16;16.00;80.80
7666;DHT22;3875;46.562;4.898;2022-12-20T11:43:50;15.80;81.20
7666;DHT22;3875;46.562;4.898;2022-12-20T12:00:26;15.70;82.00
7666;DHT22;3875;46.562;4.898;2022-12-20T12:02:58;15.60;82.10
7666;DHT22;3875;46.562;4.898;2022-12-20T12:05:42;15.60;82.30
7666;DHT22;3875;46.562;4.898;2022-12-20T12:08:27;15.50;82.30
7666;DHT22;3875;46.562;4.898;2022-12-20T12:11:12;15.50;82.40
7666;DHT22;3875;46.562;4.898;2022-12-20T12:13:39;15.40;82.50
7666;DHT22;3875;46.562;4.898;2022-12-20T12:16:35;15.30;82.80
7666;DHT22;3875;46.562;4.898;2022-12-20T12:19:01;15.30;82.70
7666;DHT22;3875;46.562;4.898;2022-12-20T12:21:32;15.30;82.80
7666;DHT22;3875;46.562;4.898;2022-12-20T12:26:30;15.20;83.50
7666;DHT22;3875;46.562;4.898;2022-12-20T12:37:53;14.90;85.20
7666;DHT22;3875;46.562;4.898;2022-12-20T12:51:10;14.70;86.40
7666;DHT22;3875;46.562;4.898;2022-12-20T12:53:42;14.70;86.50
7666;DHT22;3875;46.562;4.898;2022-12-20T12:56:37;14.70;86.70
7666;DHT22;3875;46.562;4.898;2022-12-20T13:17:53;14.70;85.50
7666;DHT22;3875;46.562;4.898;2022-12-20T13:20:30;14.70;85.80
7666;DHT22;3875;46.562;4.898;2022-12-20T13:25:40;14.70;86.10
7666;DHT22;3875;46.562;4.898;2022-12-20T13:30:46;14.60;86.20
7666;DHT22;3875;46.562;4.898;2022-12-20T13:35:58;14.60;85.70
7666;DHT22;3875;46.562;4.898;2022-12-20T13:44:09;14.60;86.10
7666;DHT22;3875;46.562;4.898;2022-12-20T13:49:31;14.50;86.90
7666;DHT22;3875;46.562;4.898;2022-12-20T13:54:41;14.40;87.40
7666;DHT22;3875;46.562;4.898;2022-12-20T13:57:14;14.30;87.50
7666;DHT22;3875;46.562;4.898;2022-12-20T13:59:45;14.30;87.60
7666;DHT22;3875;46.562;4.898;2022-12-20T14:02:19;14.30;87.90
7666;DHT22;3875;46.562;4.898;2022-12-20T14:04:54;14.30;88.10
7666;DHT22;3875;46.562;4.898;2022-12-20T14:07:20;14.20;88.10
7666;DHT22;3875;46.562;4.898;2022-12-20T14:09:48;14.20;88.40
7666;DHT22;3875;46.562;4.898;2022-12-20T14:12:19;14.20;88.40
7666;DHT22;3875;46.562;4.898;2022-12-20T14:14:47;14.20;88.80
7666;DHT22;3875;46.562;4.898;2022-12-20T14:17:27;14.10;88.90
7666;DHT22;3875;46.562;4.898;2022-12-20T14:23:04;14.10;89.10
7666;DHT22;3875;46.562;4.898;2022-12-20T14:25:36;14.10;89.30
7666;DHT22;3875;46.562;4.898;2022-12-20T14:28:02;14.10;89.10
7666;DHT22;3875;46.562;4.898;2022-12-20T14:30:34;14.10;89.10
7666;DHT22;3875;46.562;4.898;2022-12-20T14:33:01;14.10;88.90
7666;DHT22;3875;46.562;4.898;2022-12-20T14:35:27;14.10;88.60
7666;DHT22;3875;46.562;4.898;2022-12-20T14:37:58;14.20;88.50
7666;DHT22;3875;46.562;4.898;2022-12-20T14:40:25;14.20;87.90
7666;DHT22;3875;46.562;4.898;2022-12-20T14:42:51;14.30;87.60
7666;DHT22;3875;46.562;4.898;2022-12-20T14:45:23;14.30;87.00
7666;DHT22;3875;46.562;4.898;2022-12-20T14:48:13;14.30;86.70
7666;DHT22;3875;46.562;4.898;2022-12-20T14:50:50;14.30;86.30
7666;DHT22;3875;46.562;4.898;2022-12-20T14:53:20;14.30;86.40
7666;DHT22;3875;46.562;4.898;2022-12-20T14:55:47;14.30;86.20
7666;DHT22;3875;46.562;4.898;2022-12-20T14:58:41;14.30;86.10
7666;DHT22;3875;46.562;4.898;2022-12-20T15:01:19;14.30;85.80
7666;DHT22;3875;46.562;4.898;2022-12-20T15:03:56;14.30;85.90
7666;DHT22;3875;46.562;4.898;2022-12-20T15:06:45;14.30;85.70
7666;DHT22;3875;46.562;4.898;2022-12-20T15:09:12;14.40;85.60
7666;DHT22;3875;46.562;4.898;2022-12-20T15:11:41;14.30;85.60
7666;DHT22;3875;46.562;4.898;2022-12-20T15:14:47;14.30;85.70
7666;DHT22;3875;46.562;4.898;2022-12-20T15:17:13;14.30;85.60
7666;DHT22;3875;46.562;4.898;2022-12-20T15:19:40;14.30;85.50
7666;DHT22;3875;46.562;4.898;2022-12-20T15:22:13;14.30;85.60
7666;DHT22;3875;46.562;4.898;2022-12-20T15:24:40;14.30;85.50
7666;DHT22;3875;46.562;4.898;2022-12-20T15:27:12;14.30;85.50
7666;DHT22;3875;46.562;4.898;2022-12-20T15:29:38;14.30;85.40
7666;DHT22;3875;46.562;4.898;2022-12-20T15:32:10;14.30;85.40
7666;DHT22;3875;46.562;4.898;2022-12-20T15:34:39;14.30;85.40
7666;DHT22;3875;46.562;4.898;2022-12-20T15:37:05;14.30;85.30
7666;DHT22;3875;46.562;4.898;2022-12-20T15:39:32;14.30;85.40
7666;DHT22;3875;46.562;4.898;2022-12-20T15:42:17;14.30;85.40
7666;DHT22;3875;46.562;4.898;2022-12-20T15:44:44;14.30;85.40
7666;DHT22;3875;46.562;4.898;2022-12-20T15:47:15;14.30;85.60
7666;DHT22;3875;46.562;4.898;2022-12-20T15:49:41;14.30;85.60
7666;DHT22;3875;46.562;4.898;2022-12-20T15:52:15;14.30;85.70
7666;DHT22;3875;46.562;4.898;2022-12-20T15:54:42;14.30;86.00
7666;DHT22;3875;46.562;4.898;2022-12-20T15:57:12;14.20;86.20
7666;DHT22;3875;46.562;4.898;2022-12-20T15:59:38;14.20;86.70
7666;DHT22;3875;46.562;4.898;2022-12-20T16:02:21;14.20;86.90
7666;DHT22;3875;46.562;4.898;2022-12-20T16:04:46;14.10;87.10
7666;DHT22;3875;46.562;4.898;2022-12-20T16:07:12;14.10;87.30
7666;DHT22;3875;46.562;4.898;2022-12-20T16:09:38;14.10;87.40
7666;DHT22;3875;46.562;4.898;2022-12-20T16:12:31;14.10;87.50
7666;DHT22;3875;46.562;4.898;2022-12-20T16:14:54;14.10;87.30
7666;DHT22;3875;46.562;4.898;2022-12-20T16:17:19;14.10;87.40
7666;DHT22;3875;46.562;4.898;2022-12-20T16:19:45;14.10;87.50
7666;DHT22;3875;46.562;4.898;2022-12-20T16:22:19;14.00;87.80
7666;DHT22;3875;46.562;4.898;2022-12-20T16:24:47;14.00;88.10
7666;DHT22;3875;46.562;4.898;2022-12-20T16:27:13;13.90;88.40
7666;DHT22;3875;46.562;4.898;2022-12-20T16:29:38;13.90;88.50
7666;DHT22;3875;46.562;4.898;2022-12-20T16:32:13;13.90;88.80
7666;DHT22;3875;46.562;4.898;2022-12-20T16:34:39;13.90;88.90
7666;DHT22;3875;46.562;4.898;2022-12-20T16:37:05;13.80;89.10
7666;DHT22;3875;46.562;4.898;2022-12-20T16:39:31;13.80;89.00
7666;DHT22;3875;46.562;4.898;2022-12-20T16:41:56;13.80;88.90
7666;DHT22;3875;46.562;4.898;2022-12-20T16:44:22;13.80;88.70
7666;DHT22;3875;46.562;4.898;2022-12-20T16:46:48;13.80;88.70
7666;DHT22;3875;46.562;4.898;2022-12-20T16:49:13;13.90;88.50
7666;DHT22;3875;46.562;4.898;2022-12-20T16:51:43;13.90;88.40
7666;DHT22;3875;46.562;4.898;2022-12-20T16:54:16;13.90;88.10
7666;DHT22;3875;46.562;4.898;2022-12-20T16:56:44;13.90;88.10
7666;DHT22;3875;46.562;4.898;2022-12-20T16:59:12;13.90;87.90
7666;DHT22;3875;46.562;4.898;2022-12-20T17:01:39;13.90;87.60
7666;DHT22;3875;46.562;4.898;2022-12-20T17:04:14;14.00;87.50
7666;DHT22;3875;46.562;4.898;2022-12-20T17:06:41;14.00;87.20
7666;DHT22;3875;46.562;4.898;2022-12-20T17:09:07;14.00;87.40
7666;DHT22;3875;46.562;4.898;2022-12-20T17:11:33;14.00;87.50
7666;DHT22;3875;46.562;4.898;2022-12-20T17:13:59;13.90;87.60
7666;DHT22;3875;46.562;4.898;2022-12-20T17:16:26;13.90;88.00
7666;DHT22;3875;46.562;4.898;2022-12-20T17:18:54;13.90;88.20
7666;DHT22;3875;46.562;4.898;2022-12-20T17:21:45;13.90;88.50
7666;DHT22;3875;46.562;4.898;2022-12-20T17:24:18;13.80;88.50
7666;DHT22;3875;46.562;4.898;2022-12-20T17:26:44;13.80;88.80
7666;DHT22;3875;46.562;4.898;2022-12-20T17:29:10;13.80;89.00
7666;DHT22;3875;46.562;4.898;2022-12-20T17:31:41;13.80;89.00
7666;DHT22;3875;46.562;4.898;2022-12-20T17:34:19;13.80;88.90
7666;DHT22;3875;46.562;4.898;2022-12-20T17:36:45;13.80;88.80
7666;DHT22;3875;46.562;4.898;2022-12-20T17:39:12;13.80;88.80
7666;DHT22;3875;46.562;4.898;2022-12-20T17:41:38;13.80;88.80
7666;DHT22;3875;46.562;4.898;2022-12-20T17:44:04;13.80;88.80
7666;DHT22;3875;46.562;4.898;2022-12-20T17:46:31;13.80;88.80
7666;DHT22;3875;46.562;4.898;2022-12-20T17:48:57;13.80;88.60
7666;DHT22;3875;46.562;4.898;2022-12-20T17:51:28;13.80;88.70
7666;DHT22;3875;46.562;4.898;2022-12-20T17:53:58;13.80;88.70
7666;DHT22;3875;46.562;4.898;2022-12-20T17:56:35;13.80;88.70
7666;DHT22;3875;46.562;4.898;2022-12-20T17:59:02;13.80;88.60
7666;DHT22;3875;46.562;4.898;2022-12-20T18:01:33;13.80;88.70
7666;DHT22;3875;46.562;4.898;2022-12-20T18:04:01;13.70;88.70
7666;DHT22;3875;46.562;4.898;2022-12-20T18:06:30;13.70;88.80
7666;DHT22;3875;46.562;4.898;2022-12-20T18:08:57;13.70;88.80
7666;DHT22;3875;46.562;4.898;2022-12-20T18:11:25;13.70;88.90
7666;DHT22;3875;46.562;4.898;2022-12-20T18:13:53;13.70;88.90
7666;DHT22;3875;46.562;4.898;2022-12-20T18:16:22;13.70;88.80
7666;DHT22;3875;46.562;4.898;2022-12-20T18:18:49;13.70;88.70
7666;DHT22;3875;46.562;4.898;2022-12-20T18:21:17;13.70;88.60
7666;DHT22;3875;46.562;4.898;2022-12-20T18:23:44;13.70;88.40
7666;DHT22;3875;46.562;4.898;2022-12-20T18:26:18;13.70;88.30
7666;DHT22;3875;46.562;4.898;2022-12-20T18:28:47;13.80;88.30
7666;DHT22;3875;46.562;4.898;2022-12-20T18:31:16;13.80;88.40
7666;DHT22;3875;46.562;4.898;2022-12-20T18:33:42;13.70;88.40
7666;DHT22;3875;46.562;4.898;2022-12-20T18:36:15;13.70;88.50